sensor_id;sensor_type;location;lat;lon;timestamp;P1;durP1;ratioP1;P2;durP2;ratioP2
9128;SDS011;4599;50.906;6.786;2023-02-15T00:02:12;37.33;;;22.63;;
9128;SDS011;4599;50.906;6.786;2023-02-15T00:06:15;37.97;;;23.80;;
9128;SDS011;4599;50.906;6.786;2023-02-15T00:10:17;38.97;;;22.93;;
9128;SDS011;4599;50.906;6.786;2023-02-15T00:14:19;36.73;;;22.10;;
9128;SDS011;4599;50.906;6.786;2023-02-15T00:18:21;36.23;;;21.90;;
9128;SDS011;4599;50.906;6.786;2023-02-15T00:22:24;43.33;;;22.83;;
9128;SDS011;4599;50.906;6.786;2023-02-15T00:26:26;39.63;;;22.77;;
9128;SDS011;4599;50.906;6.786;2023-02-15T00:30:28;40.63;;;23.77;;
9128;SDS011;4599;50.906;6.786;2023-02-15T00:34:32;42.60;;;23.43;;
9128;SDS011;4599;50.906;6.786;2023-02-15T00:38:35;39.40;;;21.67;;
9128;SDS011;4599;50.906;6.786;2023-02-15T00:42:36;40.67;;;23.17;;
9128;SDS011;4599;50.906;6.786;2023-02-15T00:46:38;39.83;;;22.03;;
9128;SDS011;4599;50.906;6.786;2023-02-15T00:50:39;39.67;;;23.27;;
9128;SDS011;4599;50.906;6.786;2023-02-15T00:54:42;39.27;;;22.40;;
9128;SDS011;4599;50.906;6.786;2023-02-15T00:58:43;38.97;;;21.73;;
9128;SDS011;4599;50.906;6.786;2023-02-15T01:02:45;38.87;;;22.33;;
9128;SDS011;4599;50.906;6.786;2023-02-15T01:06:46;38.87;;;21.50;;
9128;SDS011;4599;50.906;6.786;2023-02-15T01:10:49;35.70;;;21.73;;
9128;SDS011;4599;50.906;6.786;2023-02-15T01:14:51;36.37;;;21.77;;
9128;SDS011;4599;50.906;6.786;2023-02-15T01:18:52;37.20;;;21.80;;
9128;SDS011;4599;50.906;6.786;2023-02-15T01:22:54;35.13;;;21.20;;
9128;SDS011;4599;50.906;6.786;2023-02-15T01:26:58;37.30;;;22.13;;
9128;SDS011;4599;50.906;6.786;2023-02-15T01:31:03;36.83;;;21.23;;
9128;SDS011;4599;50.906;6.786;2023-02-15T01:35:06;37.10;;;21.67;;
9128;SDS011;4599;50.906;6.786;2023-02-15T01:39:08;36.47;;;21.83;;
9128;SDS011;4599;50.906;6.786;2023-02-15T01:43:11;35.83;;;20.27;;
9128;SDS011;4599;50.906;6.786;2023-02-15T01:47:14;36.50;;;21.47;;
9128;SDS011;4599;50.906;6.786;2023-02-15T01:51:18;34.80;;;21.90;;
9128;SDS011;4599;50.906;6.786;2023-02-15T01:55:23;36.23;;;21.50;;
9128;SDS011;4599;50.906;6.786;2023-02-15T01:59:31;33.53;;;21.07;;
9128;SDS011;4599;50.906;6.786;2023-02-15T02:03:36;37.17;;;21.83;;
9128;SDS011;4599;50.906;6.786;2023-02-15T02:07:44;37.50;;;21.47;;
9128;SDS011;4599;50.906;6.786;2023-02-15T02:11:47;37.10;;;22.50;;
9128;SDS011;4599;50.906;6.786;2023-02-15T02:15:52;35.97;;;21.37;;
9128;SDS011;4599;50.906;6.786;2023-02-15T02:24:35;40.87;;;22.03;;
9128;SDS011;4599;50.906;6.786;2023-02-15T02:33:58;42.50;;;21.87;;
9128;SDS011;4599;50.906;6.786;2023-02-15T02:38:07;42.17;;;22.37;;
9128;SDS011;4599;50.906;6.786;2023-02-15T02:42:13;41.20;;;22.33;;
9128;SDS011;4599;50.906;6.786;2023-02-15T02:46:22;41.57;;;22.33;;
9128;SDS011;4599;50.906;6.786;2023-02-15T02:50:30;40.70;;;23.57;;
9128;SDS011;4599;50.906;6.786;2023-02-15T02:54:31;41.27;;;22.90;;
9128;SDS011;4599;50.906;6.786;2023-02-15T02:58:36;43.13;;;23.00;;
9128;SDS011;4599;50.906;6.786;2023-02-15T03:02:41;44.27;;;23.37;;
9128;SDS011;4599;50.906;6.786;2023-02-15T03:06:49;43.30;;;23.20;;
9128;SDS011;4599;50.906;6.786;2023-02-15T03:10:55;41.73;;;22.80;;
9128;SDS011;4599;50.906;6.786;2023-02-15T03:15:00;42.57;;;22.90;;
9128;SDS011;4599;50.906;6.786;2023-02-15T03:19:05;42.03;;;23.10;;
9128;SDS011;4599;50.906;6.786;2023-02-15T03:23:12;41.10;;;21.80;;
9128;SDS011;4599;50.906;6.786;2023-02-15T03:27:18;43.03;;;23.00;;
9128;SDS011;4599;50.906;6.786;2023-02-15T03:31:24;45.87;;;23.63;;
9128;SDS011;4599;50.906;6.786;2023-02-15T03:35:31;41.73;;;22.70;;
9128;SDS011;4599;50.906;6.786;2023-02-15T03:39:42;42.60;;;22.70;;
9128;SDS011;4599;50.906;6.786;2023-02-15T03:43:49;43.90;;;24.00;;
9128;SDS011;4599;50.906;6.786;2023-02-15T03:47:54;46.13;;;24.57;;
9128;SDS011;4599;50.906;6.786;2023-02-15T03:51:59;43.97;;;24.17;;
9128;SDS011;4599;50.906;6.786;2023-02-15T03:56:06;43.83;;;23.87;;
9128;SDS011;4599;50.906;6.786;2023-02-15T04:00:11;43.67;;;25.03;;
9128;SDS011;4599;50.906;6.786;2023-02-15T04:04:15;41.77;;;24.17;;
9128;SDS011;4599;50.906;6.786;2023-02-15T04:08:20;42.87;;;22.83;;
9128;SDS011;4599;50.906;6.786;2023-02-15T04:12:23;40.30;;;23.83;;
9128;SDS011;4599;50.906;6.786;2023-02-15T04:16:24;41.13;;;21.80;;
9128;SDS011;4599;50.906;6.786;2023-02-15T04:20:26;46.13;;;23.27;;
9128;SDS011;4599;50.906;6.786;2023-02-15T04:24:27;43.90;;;23.47;;
9128;SDS011;4599;50.906;6.786;2023-02-15T04:28:30;43.50;;;22.87;;
9128;SDS011;4599;50.906;6.786;2023-02-15T04:32:32;46.40;;;23.70;;
9128;SDS011;4599;50.906;6.786;2023-02-15T04:36:33;45.50;;;24.67;;
9128;SDS011;4599;50.906;6.786;2023-02-15T04:40:35;44.63;;;24.47;;
9128;SDS011;4599;50.906;6.786;2023-02-15T04:44:37;38.33;;;21.63;;
9128;SDS011;4599;50.906;6.786;2023-02-15T04:48:39;46.13;;;24.70;;
9128;SDS011;4599;50.906;6.786;2023-02-15T04:52:40;43.63;;;23.07;;
9128;SDS011;4599;50.906;6.786;2023-02-15T04:56:41;42.40;;;23.63;;
9128;SDS011;4599;50.906;6.786;2023-02-15T05:00:44;37.93;;;20.43;;
9128;SDS011;4599;50.906;6.786;2023-02-15T05:04:46;41.07;;;21.70;;
9128;SDS011;4599;50.906;6.786;2023-02-15T05:08:47;40.97;;;21.87;;
9128;SDS011;4599;50.906;6.786;2023-02-15T05:12:48;39.80;;;21.53;;
9128;SDS011;4599;50.906;6.786;2023-02-15T05:16:51;38.47;;;21.40;;
9128;SDS011;4599;50.906;6.786;2023-02-15T05:20:52;35.03;;;20.37;;
9128;SDS011;4599;50.906;6.786;2023-02-15T05:24:54;40.57;;;21.13;;
9128;SDS011;4599;50.906;6.786;2023-02-15T05:28:55;38.03;;;20.90;;
9128;SDS011;4599;50.906;6.786;2023-02-15T05:32:58;36.43;;;20.60;;
9128;SDS011;4599;50.906;6.786;2023-02-15T05:36:59;38.80;;;21.40;;
9128;SDS011;4599;50.906;6.786;2023-02-15T05:41:01;40.00;;;20.77;;
9128;SDS011;4599;50.906;6.786;2023-02-15T05:45:02;39.27;;;21.67;;
9128;SDS011;4599;50.906;6.786;2023-02-15T05:49:06;36.77;;;21.00;;
9128;SDS011;4599;50.906;6.786;2023-02-15T05:53:07;42.60;;;20.80;;
9128;SDS011;4599;50.906;6.786;2023-02-15T05:57:09;37.37;;;19.73;;
9128;SDS011;4599;50.906;6.786;2023-02-15T06:01:11;39.67;;;21.53;;
9128;SDS011;4599;50.906;6.786;2023-02-15T06:05:15;38.70;;;20.93;;
9128;SDS011;4599;50.906;6.786;2023-02-15T06:09:16;37.93;;;20.93;;
9128;SDS011;4599;50.906;6.786;2023-02-15T06:13:18;40.63;;;22.40;;
9128;SDS011;4599;50.906;6.786;2023-02-15T06:17:19;41.73;;;22.40;;
9128;SDS011;4599;50.906;6.786;2023-02-15T06:21:22;44.90;;;22.30;;
9128;SDS011;4599;50.906;6.786;2023-02-15T06:25:23;42.47;;;20.73;;
9128;SDS011;4599;50.906;6.786;2023-02-15T06:29:25;41.23;;;22.53;;
9128;SDS011;4599;50.906;6.786;2023-02-15T06:33:26;40.07;;;21.50;;
9128;SDS011;4599;50.906;6.786;2023-02-15T06:37:29;42.67;;;22.10;;
9128;SDS011;4599;50.906;6.786;2023-02-15T06:41:30;36.47;;;19.90;;
9128;SDS011;4599;50.906;6.786;2023-02-15T06:45:32;37.83;;;20.50;;
9128;SDS011;4599;50.906;6.786;2023-02-15T06:49:39;41.53;;;21.57;;
9128;SDS011;4599;50.906;6.786;2023-02-15T06:53:42;44.20;;;22.13;;
9128;SDS011;4599;50.906;6.786;2023-02-15T06:57:43;39.13;;;20.93;;
9128;SDS011;4599;50.906;6.786;2023-02-15T07:01:45;43.27;;;22.60;;
9128;SDS011;4599;50.906;6.786;2023-02-15T07:05:46;40.60;;;21.07;;
9128;SDS011;4599;50.906;6.786;2023-02-15T07:09:49;37.30;;;18.87;;
9128;SDS011;4599;50.906;6.786;2023-02-15T07:13:50;35.00;;;19.63;;
9128;SDS011;4599;50.906;6.786;2023-02-15T07:17:52;36.17;;;19.13;;
9128;SDS011;4599;50.906;6.786;2023-02-15T07:21:53;32.07;;;15.53;;
9128;SDS011;4599;50.906;6.786;2023-02-15T07:25:57;39.13;;;20.40;;
9128;SDS011;4599;50.906;6.786;2023-02-15T07:29:59;34.20;;;17.77;;
9128;SDS011;4599;50.906;6.786;2023-02-15T07:34:00;34.03;;;18.63;;
9128;SDS011;4599;50.906;6.786;2023-02-15T07:38:02;37.37;;;19.83;;
9128;SDS011;4599;50.906;6.786;2023-02-15T07:42:05;32.23;;;18.07;;
9128;SDS011;4599;50.906;6.786;2023-02-15T07:46:07;29.37;;;17.40;;
9128;SDS011;4599;50.906;6.786;2023-02-15T07:50:09;37.90;;;19.83;;
9128;SDS011;4599;50.906;6.786;2023-02-15T07:54:11;32.63;;;17.80;;
9128;SDS011;4599;50.906;6.786;2023-02-15T07:58:13;34.37;;;18.53;;
9128;SDS011;4599;50.906;6.786;2023-02-15T08:02:15;39.67;;;20.63;;
9128;SDS011;4599;50.906;6.786;2023-02-15T08:06:18;32.57;;;18.03;;
9128;SDS011;4599;50.906;6.786;2023-02-15T08:10:20;34.97;;;19.83;;
9128;SDS011;4599;50.906;6.786;2023-02-15T08:14:26;34.33;;;18.80;;
9128;SDS011;4599;50.906;6.786;2023-02-15T08:18:28;29.23;;;17.57;;
9128;SDS011;4599;50.906;6.786;2023-02-15T08:22:30;32.77;;;19.40;;
9128;SDS011;4599;50.906;6.786;2023-02-15T08:26:31;29.53;;;17.93;;
9128;SDS011;4599;50.906;6.786;2023-02-15T08:30:35;29.90;;;17.47;;
9128;SDS011;4599;50.906;6.786;2023-02-15T08:34:37;27.23;;;16.20;;
9128;SDS011;4599;50.906;6.786;2023-02-15T08:38:41;28.73;;;17.30;;
9128;SDS011;4599;50.906;6.786;2023-02-15T08:42:43;30.97;;;17.90;;
9128;SDS011;4599;50.906;6.786;2023-02-15T08:46:47;31.73;;;17.13;;
9128;SDS011;4599;50.906;6.786;2023-02-15T08:50:49;26.33;;;16.40;;
9128;SDS011;4599;50.906;6.786;2023-02-15T08:54:50;29.07;;;17.07;;
9128;SDS011;4599;50.906;6.786;2023-02-15T08:58:52;28.37;;;16.73;;
9128;SDS011;4599;50.906;6.786;2023-02-15T09:02:55;29.40;;;17.13;;
9128;SDS011;4599;50.906;6.786;2023-02-15T09:06:57;25.57;;;16.17;;
9128;SDS011;4599;50.906;6.786;2023-02-15T09:11:04;27.87;;;15.67;;
9128;SDS011;4599;50.906;6.786;2023-02-15T09:15:10;23.40;;;15.70;;
9128;SDS011;4599;50.906;6.786;2023-02-15T09:19:13;25.60;;;16.50;;
9128;SDS011;4599;50.906;6.786;2023-02-15T09:23:14;25.80;;;15.80;;
9128;SDS011;4599;50.906;6.786;2023-02-15T09:27:27;28.83;;;16.70;;
9128;SDS011;4599;50.906;6.786;2023-02-15T09:31:29;25.93;;;15.03;;
9128;SDS011;4599;50.906;6.786;2023-02-15T09:35:32;21.93;;;14.47;;
9128;SDS011;4599;50.906;6.786;2023-02-15T09:39:34;22.43;;;14.20;;
9128;SDS011;4599;50.906;6.786;2023-02-15T09:43:42;23.77;;;13.73;;
9128;SDS011;4599;50.906;6.786;2023-02-15T09:48:10;20.13;;;14.00;;
9128;SDS011;4599;50.906;6.786;2023-02-15T09:52:29;23.77;;;13.90;;
9128;SDS011;4599;50.906;6.786;2023-02-15T09:56:42;19.63;;;13.23;;
9128;SDS011;4599;50.906;6.786;2023-02-15T10:00:50;24.10;;;14.17;;
9128;SDS011;4599;50.906;6.786;2023-02-15T10:05:02;16.87;;;12.67;;
9128;SDS011;4599;50.906;6.786;2023-02-15T10:09:21;19.40;;;12.93;;
9128;SDS011;4599;50.906;6.786;2023-02-15T10:13:33;17.80;;;12.27;;
9128;SDS011;4599;50.906;6.786;2023-02-15T10:17:42;18.93;;;12.17;;
9128;SDS011;4599;50.906;6.786;2023-02-15T10:22:08;17.10;;;11.60;;
9128;SDS011;4599;50.906;6.786;2023-02-15T10:26:22;19.50;;;11.90;;
9128;SDS011;4599;50.906;6.786;2023-02-15T10:30:27;18.23;;;12.17;;
9128;SDS011;4599;50.906;6.786;2023-02-15T10:34:37;17.03;;;11.80;;
9128;SDS011;4599;50.906;6.786;2023-02-15T10:38:40;16.13;;;10.97;;
9128;SDS011;4599;50.906;6.786;2023-02-15T10:42:51;17.30;;;11.40;;
9128;SDS011;4599;50.906;6.786;2023-02-15T10:47:10;16.40;;;11.13;;
9128;SDS011;4599;50.906;6.786;2023-02-15T10:51:29;19.63;;;11.30;;
9128;SDS011;4599;50.906;6.786;2023-02-15T10:55:42;17.93;;;11.20;;
9128;SDS011;4599;50.906;6.786;2023-02-15T11:00:07;15.87;;;11.10;;
9128;SDS011;4599;50.906;6.786;2023-02-15T11:04:23;16.77;;;11.37;;
9128;SDS011;4599;50.906;6.786;2023-02-15T11:08:48;16.67;;;11.23;;
9128;SDS011;4599;50.906;6.786;2023-02-15T11:12:54;14.30;;;10.27;;
9128;SDS011;4599;50.906;6.786;2023-02-15T11:16:59;14.73;;;10.57;;
9128;SDS011;4599;50.906;6.786;2023-02-15T11:21:07;17.40;;;10.60;;
9128;SDS011;4599;50.906;6.786;2023-02-15T11:25:14;12.63;;;10.00;;
9128;SDS011;4599;50.906;6.786;2023-02-15T11:29:21;16.83;;;10.47;;
9128;SDS011;4599;50.906;6.786;2023-02-15T11:33:29;12.70;;;10.37;;
9128;SDS011;4599;50.906;6.786;2023-02-15T11:37:43;15.67;;;11.13;;
9128;SDS011;4599;50.906;6.786;2023-02-15T11:41:51;16.00;;;10.83;;
9128;SDS011;4599;50.906;6.786;2023-02-15T11:45:56;16.67;;;9.67;;
9128;SDS011;4599;50.906;6.786;2023-02-15T11:49:59;13.57;;;9.77;;
9128;SDS011;4599;50.906;6.786;2023-02-15T11:54:00;13.47;;;9.70;;
9128;SDS011;4599;50.906;6.786;2023-02-15T11:58:04;13.00;;;10.03;;
9128;SDS011;4599;50.906;6.786;2023-02-15T12:02:15;13.37;;;10.43;;
9128;SDS011;4599;50.906;6.786;2023-02-15T12:06:23;15.03;;;10.43;;
9128;SDS011;4599;50.906;6.786;2023-02-15T12:10:28;14.50;;;10.67;;
9128;SDS011;4599;50.906;6.786;2023-02-15T12:14:34;11.57;;;9.20;;
9128;SDS011;4599;50.906;6.786;2023-02-15T12:18:48;14.60;;;10.70;;
9128;SDS011;4599;50.906;6.786;2023-02-15T12:22:53;14.23;;;10.10;;
9128;SDS011;4599;50.906;6.786;2023-02-15T12:27:01;14.13;;;10.07;;
9128;SDS011;4599;50.906;6.786;2023-02-15T12:31:07;13.93;;;9.87;;
9128;SDS011;4599;50.906;6.786;2023-02-15T12:35:21;13.77;;;9.93;;
9128;SDS011;4599;50.906;6.786;2023-02-15T12:39:30;13.07;;;10.50;;
9128;SDS011;4599;50.906;6.786;2023-02-15T12:43:33;15.73;;;9.73;;
9128;SDS011;4599;50.906;6.786;2023-02-15T12:47:35;13.30;;;9.63;;
9128;SDS011;4599;50.906;6.786;2023-02-15T12:51:44;15.47;;;10.37;;
9128;SDS011;4599;50.906;6.786;2023-02-15T12:55:53;13.40;;;9.90;;
9128;SDS011;4599;50.906;6.786;2023-02-15T12:59:57;14.93;;;10.30;;
9128;SDS011;4599;50.906;6.786;2023-02-15T13:04:00;13.60;;;10.10;;
9128;SDS011;4599;50.906;6.786;2023-02-15T13:08:08;13.73;;;9.50;;
9128;SDS011;4599;50.906;6.786;2023-02-15T13:12:17;14.27;;;10.43;;
9128;SDS011;4599;50.906;6.786;2023-02-15T13:16:23;17.37;;;10.37;;
9128;SDS011;4599;50.906;6.786;2023-02-15T13:20:28;14.87;;;10.63;;
9128;SDS011;4599;50.906;6.786;2023-02-15T13:24:32;15.67;;;10.20;;
9128;SDS011;4599;50.906;6.786;2023-02-15T13:28:39;15.53;;;9.73;;
9128;SDS011;4599;50.906;6.786;2023-02-15T13:32:44;14.67;;;10.47;;
9128;SDS011;4599;50.906;6.786;2023-02-15T13:36:49;15.23;;;9.90;;
9128;SDS011;4599;50.906;6.786;2023-02-15T13:40:55;13.50;;;10.23;;
9128;SDS011;4599;50.906;6.786;2023-02-15T13:45:09;14.03;;;10.00;;
9128;SDS011;4599;50.906;6.786;2023-02-15T13:49:30;14.70;;;10.53;;
9128;SDS011;4599;50.906;6.786;2023-02-15T13:53:53;15.13;;;10.47;;
9128;SDS011;4599;50.906;6.786;2023-02-15T13:58:13;13.03;;;9.73;;
9128;SDS011;4599;50.906;6.786;2023-02-15T14:02:33;15.43;;;9.93;;
9128;SDS011;4599;50.906;6.786;2023-02-15T14:06:56;15.60;;;9.37;;
9128;SDS011;4599;50.906;6.786;2023-02-15T14:11:08;13.37;;;9.87;;
9128;SDS011;4599;50.906;6.786;2023-02-15T14:15:26;13.93;;;9.93;;
9128;SDS011;4599;50.906;6.786;2023-02-15T14:19:37;13.50;;;9.40;;
9128;SDS011;4599;50.906;6.786;2023-02-15T14:23:46;13.37;;;9.90;;
9128;SDS011;4599;50.906;6.786;2023-02-15T14:28:01;12.47;;;9.13;;
9128;SDS011;4599;50.906;6.786;2023-02-15T14:32:08;16.13;;;10.13;;
9128;SDS011;4599;50.906;6.786;2023-02-15T14:36:16;16.07;;;9.53;;
9128;SDS011;4599;50.906;6.786;2023-02-15T14:40:24;16.27;;;10.53;;
9128;SDS011;4599;50.906;6.786;2023-02-15T14:44:36;18.70;;;9.90;;
9128;SDS011;4599;50.906;6.786;2023-02-15T14:48:41;16.40;;;9.73;;
9128;SDS011;4599;50.906;6.786;2023-02-15T14:57:23;13.03;;;8.83;;
9128;SDS011;4599;50.906;6.786;2023-02-15T15:01:36;14.50;;;9.63;;
9128;SDS011;4599;50.906;6.786;2023-02-15T15:05:46;14.90;;;9.57;;
9128;SDS011;4599;50.906;6.786;2023-02-15T15:09:57;11.50;;;8.57;;
9128;SDS011;4599;50.906;6.786;2023-02-15T15:14:01;11.67;;;8.90;;
9128;SDS011;4599;50.906;6.786;2023-02-15T15:18:04;13.23;;;8.97;;
9128;SDS011;4599;50.906;6.786;2023-02-15T15:22:16;11.97;;;8.67;;
9128;SDS011;4599;50.906;6.786;2023-02-15T15:26:24;12.17;;;9.37;;
9128;SDS011;4599;50.906;6.786;2023-02-15T15:30:49;17.03;;;9.63;;
9128;SDS011;4599;50.906;6.786;2023-02-15T15:34:55;18.10;;;9.83;;
9128;SDS011;4599;50.906;6.786;2023-02-15T15:39:18;14.27;;;10.03;;
9128;SDS011;4599;50.906;6.786;2023-02-15T15:43:56;13.37;;;9.47;;
9128;SDS011;4599;50.906;6.786;2023-02-15T15:48:31;13.53;;;9.57;;
9128;SDS011;4599;50.906;6.786;2023-02-15T15:52:34;13.13;;;9.60;;
9128;SDS011;4599;50.906;6.786;2023-02-15T15:56:36;17.13;;;9.80;;
9128;SDS011;4599;50.906;6.786;2023-02-15T16:00:39;13.50;;;9.50;;
9128;SDS011;4599;50.906;6.786;2023-02-15T16:04:45;11.50;;;9.20;;
9128;SDS011;4599;50.906;6.786;2023-02-15T16:08:47;12.33;;;8.43;;
9128;SDS011;4599;50.906;6.786;2023-02-15T16:12:48;15.90;;;9.10;;
9128;SDS011;4599;50.906;6.786;2023-02-15T16:16:52;14.80;;;9.57;;
9128;SDS011;4599;50.906;6.786;2023-02-15T16:20:58;16.70;;;10.80;;
9128;SDS011;4599;50.906;6.786;2023-02-15T16:25:08;13.87;;;10.07;;
9128;SDS011;4599;50.906;6.786;2023-02-15T16:29:32;19.20;;;10.40;;
9128;SDS011;4599;50.906;6.786;2023-02-15T16:33:35;16.67;;;10.50;;
9128;SDS011;4599;50.906;6.786;2023-02-15T16:37:38;12.60;;;9.50;;
9128;SDS011;4599;50.906;6.786;2023-02-15T16:41:40;17.13;;;10.23;;
9128;SDS011;4599;50.906;6.786;2023-02-15T16:45:41;15.23;;;10.00;;
9128;SDS011;4599;50.906;6.786;2023-02-15T16:49:44;14.00;;;9.87;;
9128;SDS011;4599;50.906;6.786;2023-02-15T16:53:49;15.93;;;10.43;;
9128;SDS011;4599;50.906;6.786;2023-02-15T16:57:51;15.33;;;9.87;;
9128;SDS011;4599;50.906;6.786;2023-02-15T17:01:57;15.37;;;9.60;;
9128;SDS011;4599;50.906;6.786;2023-02-15T17:05:59;16.13;;;10.87;;
9128;SDS011;4599;50.906;6.786;2023-02-15T17:10:16;14.33;;;9.90;;
9128;SDS011;4599;50.906;6.786;2023-02-15T17:14:29;16.60;;;10.23;;
9128;SDS011;4599;50.906;6.786;2023-02-15T17:18:33;16.67;;;10.97;;
9128;SDS011;4599;50.906;6.786;2023-02-15T17:22:39;12.80;;;9.70;;
9128;SDS011;4599;50.906;6.786;2023-02-15T17:26:42;17.13;;;10.50;;
9128;SDS011;4599;50.906;6.786;2023-02-15T17:30:44;15.60;;;9.40;;
9128;SDS011;4599;50.906;6.786;2023-02-15T17:34:50;14.60;;;9.80;;
9128;SDS011;4599;50.906;6.786;2023-02-15T17:38:59;16.43;;;10.97;;
9128;SDS011;4599;50.906;6.786;2023-02-15T17:43:08;17.93;;;10.20;;
9128;SDS011;4599;50.906;6.786;2023-02-15T17:47:09;16.93;;;11.40;;
9128;SDS011;4599;50.906;6.786;2023-02-15T17:51:15;16.87;;;10.30;;
9128;SDS011;4599;50.906;6.786;2023-02-15T17:55:20;16.03;;;10.13;;
9128;SDS011;4599;50.906;6.786;2023-02-15T17:59:24;16.77;;;9.83;;
9128;SDS011;4599;50.906;6.786;2023-02-15T18:03:28;14.63;;;9.97;;
9128;SDS011;4599;50.906;6.786;2023-02-15T18:07:35;16.50;;;10.03;;
9128;SDS011;4599;50.906;6.786;2023-02-15T18:11:36;17.50;;;10.30;;
9128;SDS011;4599;50.906;6.786;2023-02-15T18:15:39;14.60;;;10.03;;
9128;SDS011;4599;50.906;6.786;2023-02-15T18:19:41;16.33;;;10.03;;
9128;SDS011;4599;50.906;6.786;2023-02-15T18:23:43;17.20;;;10.97;;
9128;SDS011;4599;50.906;6.786;2023-02-15T18:27:45;14.73;;;10.27;;
9128;SDS011;4599;50.906;6.786;2023-02-15T18:31:50;18.37;;;10.33;;
9128;SDS011;4599;50.906;6.786;2023-02-15T18:35:53;19.73;;;12.93;;
9128;SDS011;4599;50.906;6.786;2023-02-15T18:39:55;23.07;;;15.97;;
9128;SDS011;4599;50.906;6.786;2023-02-15T18:43:56;22.20;;;14.10;;
9128;SDS011;4599;50.906;6.786;2023-02-15T18:47:59;20.03;;;12.77;;
9128;SDS011;4599;50.906;6.786;2023-02-15T18:52:01;19.97;;;12.77;;
9128;SDS011;4599;50.906;6.786;2023-02-15T18:56:03;20.33;;;12.20;;
9128;SDS011;4599;50.906;6.786;2023-02-15T19:00:05;16.27;;;12.00;;
9128;SDS011;4599;50.906;6.786;2023-02-15T19:04:15;17.13;;;11.43;;
9128;SDS011;4599;50.906;6.786;2023-02-15T19:08:17;16.43;;;11.23;;
9128;SDS011;4599;50.906;6.786;2023-02-15T19:12:21;18.10;;;11.27;;
9128;SDS011;4599;50.906;6.786;2023-02-15T19:16:28;15.03;;;10.90;;
9128;SDS011;4599;50.906;6.786;2023-02-15T19:20:34;18.20;;;12.13;;
9128;SDS011;4599;50.906;6.786;2023-02-15T19:24:38;19.33;;;11.93;;
9128;SDS011;4599;50.906;6.786;2023-02-15T19:28:41;14.53;;;10.67;;
9128;SDS011;4599;50.906;6.786;2023-02-15T19:32:43;17.93;;;11.00;;
9128;SDS011;4599;50.906;6.786;2023-02-15T19:36:47;17.13;;;11.50;;
9128;SDS011;4599;50.906;6.786;2023-02-15T19:40:51;18.33;;;11.27;;
9128;SDS011;4599;50.906;6.786;2023-02-15T19:44:53;14.83;;;11.27;;
9128;SDS011;4599;50.906;6.786;2023-02-15T19:48:54;17.10;;;11.37;;
9128;SDS011;4599;50.906;6.786;2023-02-15T19:52:57;15.13;;;10.67;;
9128;SDS011;4599;50.906;6.786;2023-02-15T19:56:59;15.73;;;11.00;;
9128;SDS011;4599;50.906;6.786;2023-02-15T20:01:01;18.03;;;11.70;;
9128;SDS011;4599;50.906;6.786;2023-02-15T20:05:03;20.03;;;12.70;;
9128;SDS011;4599;50.906;6.786;2023-02-15T20:09:06;18.20;;;11.77;;
9128;SDS011;4599;50.906;6.786;2023-02-15T20:13:08;24.43;;;12.40;;
9128;SDS011;4599;50.906;6.786;2023-02-15T20:17:12;19.23;;;12.80;;
9128;SDS011;4599;50.906;6.786;2023-02-15T20:21:14;21.03;;;13.07;;
9128;SDS011;4599;50.906;6.786;2023-02-15T20:25:19;19.87;;;13.43;;
9128;SDS011;4599;50.906;6.786;2023-02-15T20:29:21;22.70;;;13.57;;
9128;SDS011;4599;50.906;6.786;2023-02-15T20:33:23;23.70;;;13.97;;
9128;SDS011;4599;50.906;6.786;2023-02-15T20:37:25;20.60;;;13.57;;
9128;SDS011;4599;50.906;6.786;2023-02-15T20:41:30;24.00;;;13.30;;
9128;SDS011;4599;50.906;6.786;2023-02-15T20:45:32;22.67;;;12.90;;
9128;SDS011;4599;50.906;6.786;2023-02-15T20:49:34;17.93;;;12.07;;
9128;SDS011;4599;50.906;6.786;2023-02-15T20:53:38;23.17;;;14.40;;
9128;SDS011;4599;50.906;6.786;2023-02-15T20:57:41;27.37;;;17.37;;
9128;SDS011;4599;50.906;6.786;2023-02-15T21:01:43;21.90;;;15.07;;
9128;SDS011;4599;50.906;6.786;2023-02-15T21:05:45;22.63;;;15.03;;
9128;SDS011;4599;50.906;6.786;2023-02-15T21:09:46;24.73;;;15.13;;
9128;SDS011;4599;50.906;6.786;2023-02-15T21:13:49;24.40;;;15.77;;
9128;SDS011;4599;50.906;6.786;2023-02-15T21:17:51;25.87;;;16.47;;
9128;SDS011;4599;50.906;6.786;2023-02-15T21:21:52;27.30;;;16.23;;
9128;SDS011;4599;50.906;6.786;2023-02-15T21:25:54;23.57;;;14.67;;
9128;SDS011;4599;50.906;6.786;2023-02-15T21:29:57;23.90;;;14.93;;
9128;SDS011;4599;50.906;6.786;2023-02-15T21:33:59;23.33;;;14.43;;
9128;SDS011;4599;50.906;6.786;2023-02-15T21:38:00;25.67;;;14.93;;
9128;SDS011;4599;50.906;6.786;2023-02-15T21:42:04;22.07;;;14.07;;
9128;SDS011;4599;50.906;6.786;2023-02-15T21:46:12;21.37;;;13.77;;
9128;SDS011;4599;50.906;6.786;2023-02-15T21:50:15;23.33;;;15.13;;
9128;SDS011;4599;50.906;6.786;2023-02-15T21:54:18;19.63;;;13.83;;
9128;SDS011;4599;50.906;6.786;2023-02-15T21:58:21;28.20;;;15.90;;
9128;SDS011;4599;50.906;6.786;2023-02-15T22:02:27;21.90;;;13.97;;
9128;SDS011;4599;50.906;6.786;2023-02-15T22:06:29;23.67;;;14.93;;
9128;SDS011;4599;50.906;6.786;2023-02-15T22:10:31;24.10;;;14.60;;
9128;SDS011;4599;50.906;6.786;2023-02-15T22:14:34;21.13;;;14.43;;
9128;SDS011;4599;50.906;6.786;2023-02-15T22:18:38;22.13;;;12.83;;
9128;SDS011;4599;50.906;6.786;2023-02-15T22:22:39;20.20;;;13.77;;
9128;SDS011;4599;50.906;6.786;2023-02-15T22:26:41;21.03;;;14.43;;
9128;SDS011;4599;50.906;6.786;2023-02-15T22:30:43;21.83;;;14.13;;
9128;SDS011;4599;50.906;6.786;2023-02-15T22:34:46;23.83;;;14.33;;
9128;SDS011;4599;50.906;6.786;2023-02-15T22:38:47;23.07;;;14.70;;
9128;SDS011;4599;50.906;6.786;2023-02-15T22:42:49;23.87;;;14.47;;
9128;SDS011;4599;50.906;6.786;2023-02-15T22:46:52;23.50;;;14.63;;
9128;SDS011;4599;50.906;6.786;2023-02-15T22:50:55;20.20;;;14.13;;
9128;SDS011;4599;50.906;6.786;2023-02-15T22:54:57;24.60;;;16.20;;
9128;SDS011;4599;50.906;6.786;2023-02-15T22:59:00;28.90;;;16.03;;
9128;SDS011;4599;50.906;6.786;2023-02-15T23:03:09;21.03;;;14.53;;
9128;SDS011;4599;50.906;6.786;2023-02-15T23:07:16;19.93;;;13.87;;
9128;SDS011;4599;50.906;6.786;2023-02-15T23:11:18;22.30;;;14.63;;
9128;SDS011;4599;50.906;6.786;2023-02-15T23:15:20;21.03;;;14.57;;
9128;SDS011;4599;50.906;6.786;2023-02-15T23:19:21;24.80;;;15.70;;
9128;SDS011;4599;50.906;6.786;2023-02-15T23:23:29;25.30;;;15.90;;
9128;SDS011;4599;50.906;6.786;2023-02-15T23:27:32;24.43;;;15.03;;
9128;SDS011;4599;50.906;6.786;2023-02-15T23:31:33;23.83;;;15.90;;
9128;SDS011;4599;50.906;6.786;2023-02-15T23:35:40;26.30;;;15.93;;
9128;SDS011;4599;50.906;6.786;2023-02-15T23:39:43;23.87;;;14.67;;
9128;SDS011;4599;50.906;6.786;2023-02-15T23:43:45;23.50;;;14.90;;
9128;SDS011;4599;50.906;6.786;2023-02-15T23:47:49;22.97;;;15.20;;
9128;SDS011;4599;50.906;6.786;2023-02-15T23:51:51;26.63;;;15.70;;
9128;SDS011;4599;50.906;6.786;2023-02-15T23:55:55;23.63;;;14.60;;
9128;SDS011;4599;50.906;6.786;2023-02-15T23:59:57;21.23;;;14.77;;
